createdAt,value
2022-12-31T00:00:25.469Z,51324.97
2022-12-31T00:02:52.637Z,51319.00
2022-12-31T00:05:19.812Z,51321.00
2022-12-31T00:07:46.881Z,51307.06
2022-12-31T00:10:14.369Z,51328.94
2022-12-31T00:12:41.513Z,51324.97
2022-12-31T00:15:09.359Z,51336.91
2022-12-31T00:17:36.427Z,51330.94
2022-12-31T00:20:03.679Z,51336.91
2022-12-31T00:22:30.782Z,51344.84
2022-12-31T00:24:57.863Z,51346.84
2022-12-31T00:27:24.980Z,51324.97
2022-12-31T00:29:52.024Z,51350.81
2022-12-31T00:32:19.462Z,51322.97
2022-12-31T00:34:46.487Z,51332.91
2022-12-31T00:37:13.588Z,51324.97
2022-12-31T00:39:40.704Z,51303.09
2022-12-31T00:42:08.443Z,51319.00
2022-12-31T00:44:35.444Z,51332.91
2022-12-31T00:47:02.490Z,51336.91
2022-12-31T00:49:29.556Z,51317.00
2022-12-31T00:51:56.719Z,51317.00
2022-12-31T00:54:23.768Z,51338.88
2022-12-31T00:56:50.807Z,51321.00
2022-12-31T00:59:17.890Z,51309.06
2022-12-31T01:01:45.109Z,51340.88
2022-12-31T01:04:19.744Z,51354.78
2022-12-31T01:06:47.333Z,51317.00
2022-12-31T01:09:16.545Z,51352.78
2022-12-31T01:11:44.345Z,51348.81
2022-12-31T01:14:15.812Z,51358.75
2022-12-31T01:16:45.896Z,51358.75
2022-12-31T01:19:20.777Z,51340.88
2022-12-31T01:21:48.917Z,51340.88
2022-12-31T01:24:16.661Z,51336.91
2022-12-31T01:26:44.286Z,51350.81
2022-12-31T01:29:13.338Z,51321.00
2022-12-31T01:31:41.239Z,51334.91
2022-12-31T01:34:09.247Z,51346.84
2022-12-31T01:36:38.119Z,51348.81
2022-12-31T01:39:08.232Z,51322.97
2022-12-31T01:41:40.335Z,51321.00
2022-12-31T01:44:13.634Z,51332.91
2022-12-31T01:46:52.854Z,51319.00
2022-12-31T01:49:44.184Z,51348.81
2022-12-31T01:52:33.230Z,51311.06
2022-12-31T01:55:22.752Z,51352.78
2022-12-31T01:57:57.480Z,51336.91
2022-12-31T02:00:24.801Z,51336.91
2022-12-31T02:02:52.289Z,51360.75
2022-12-31T02:05:27.643Z,51344.84
2022-12-31T02:07:55.018Z,51338.88
2022-12-31T02:10:22.200Z,51328.94
2022-12-31T02:12:49.378Z,51336.91
2022-12-31T02:15:17.628Z,51321.00
2022-12-31T02:18:00.337Z,51334.91
2022-12-31T02:21:08.384Z,51330.94
2022-12-31T02:24:19.584Z,51313.03
2022-12-31T02:27:03.531Z,51334.91
2022-12-31T02:30:01.842Z,51332.91
2022-12-31T02:32:48.943Z,51332.91
2022-12-31T02:35:41.435Z,51338.88
2022-12-31T02:38:24.076Z,51338.88
2022-12-31T02:40:56.732Z,51342.84
2022-12-31T02:43:25.781Z,51364.72
2022-12-31T02:46:22.048Z,51330.94
2022-12-31T02:49:38.608Z,51322.97
2022-12-31T02:53:02.191Z,51328.94
2022-12-31T02:56:09.464Z,51328.94
2022-12-31T02:59:34.511Z,51328.94
2022-12-31T03:02:13.928Z,51342.84
2022-12-31T03:04:46.450Z,51348.81
2022-12-31T03:07:19.519Z,51336.91
2022-12-31T03:09:46.714Z,51334.91
2022-12-31T03:12:33.856Z,51370.69
2022-12-31T03:15:00.978Z,51346.84
2022-12-31T03:17:28.044Z,51370.69
2022-12-31T03:20:14.128Z,51354.78
2022-12-31T03:22:43.360Z,51356.78
2022-12-31T03:25:32.426Z,51342.84
2022-12-31T03:28:00.929Z,51352.78
2022-12-31T03:30:29.116Z,51340.88
2022-12-31T03:32:56.862Z,51344.84
2022-12-31T03:35:26.371Z,51352.78
2022-12-31T03:37:53.835Z,51348.81
2022-12-31T03:40:23.726Z,51370.69
2022-12-31T03:42:51.351Z,51346.84
2022-12-31T03:45:18.658Z,51356.78
2022-12-31T03:47:46.080Z,51350.81
2022-12-31T03:50:16.183Z,51362.75
2022-12-31T03:52:43.755Z,51380.63
2022-12-31T03:55:11.794Z,51324.97
2022-12-31T03:57:39.180Z,51346.84
2022-12-31T04:00:10.600Z,51336.91
2022-12-31T04:02:37.945Z,51374.66
2022-12-31T04:05:05.837Z,51356.78
2022-12-31T04:07:32.947Z,51352.78
2022-12-31T04:10:00.165Z,51352.78
2022-12-31T04:12:27.325Z,51372.69
2022-12-31T04:14:54.389Z,51368.69
2022-12-31T04:17:21.552Z,51374.66
2022-12-31T04:19:49.832Z,51352.78
2022-12-31T04:22:17.070Z,51350.81
2022-12-31T04:24:44.605Z,51386.59
2022-12-31T04:27:13.117Z,51380.63
2022-12-31T04:29:40.571Z,51354.78
2022-12-31T04:32:10.108Z,51382.63
2022-12-31T04:34:37.322Z,51370.69
2022-12-31T04:37:04.583Z,51346.84
2022-12-31T04:39:31.740Z,51346.84
2022-12-31T04:41:58.811Z,51370.69
2022-12-31T04:44:25.873Z,51358.75
2022-12-31T04:46:52.925Z,51344.84
2022-12-31T04:49:20.157Z,51372.69
2022-12-31T04:51:47.625Z,51380.63
2022-12-31T04:54:14.691Z,51358.75
2022-12-31T04:56:41.731Z,51360.75
2022-12-31T04:59:10.407Z,51336.91
2022-12-31T05:01:38.656Z,51372.69
2022-12-31T05:04:06.109Z,51346.84
2022-12-31T05:06:33.408Z,51350.81
2022-12-31T05:09:01.830Z,51354.78
2022-12-31T05:11:28.973Z,51350.81
2022-12-31T05:13:55.999Z,51356.78
2022-12-31T05:16:23.190Z,51378.66
2022-12-31T05:18:50.282Z,51380.63
2022-12-31T05:21:21.844Z,51360.75
2022-12-31T05:23:50.057Z,51366.72
2022-12-31T05:26:17.858Z,51376.66
2022-12-31T05:28:44.935Z,51372.69
2022-12-31T05:31:12.065Z,51368.69
2022-12-31T05:33:39.277Z,51350.81
2022-12-31T05:36:06.825Z,51356.78
2022-12-31T05:38:34.180Z,51362.75
2022-12-31T05:41:03.861Z,51352.78
2022-12-31T05:43:32.061Z,51356.78
2022-12-31T05:46:04.643Z,51370.69
2022-12-31T05:48:32.518Z,51344.84
2022-12-31T05:50:59.769Z,51364.72
2022-12-31T05:53:26.845Z,51350.81
2022-12-31T05:55:53.889Z,51376.66
2022-12-31T05:58:20.965Z,51354.78
2022-12-31T06:00:48.091Z,51372.69
2022-12-31T06:03:15.209Z,51372.69
2022-12-31T06:05:43.563Z,51392.56
2022-12-31T06:08:12.123Z,51374.66
2022-12-31T06:10:40.222Z,51336.91
2022-12-31T06:13:08.145Z,51344.84
2022-12-31T06:15:40.273Z,51380.63
2022-12-31T06:18:07.962Z,51366.72
2022-12-31T06:20:38.874Z,51344.84
2022-12-31T06:23:06.191Z,51364.72
2022-12-31T06:25:37.072Z,51346.84
2022-12-31T06:28:05.919Z,51386.59
2022-12-31T06:30:35.885Z,51388.59
2022-12-31T06:33:03.143Z,51354.78
2022-12-31T06:35:30.209Z,51356.78
2022-12-31T06:37:57.246Z,51344.84
2022-12-31T06:40:24.655Z,51380.63
2022-12-31T06:42:56.120Z,51374.66
2022-12-31T06:45:27.043Z,51378.66
2022-12-31T06:47:54.137Z,51362.75
2022-12-31T06:50:21.461Z,51364.72
2022-12-31T06:52:48.570Z,51350.81
2022-12-31T06:55:16.391Z,51364.72
2022-12-31T07:39:48.101Z,51390.56
2022-12-31T07:42:40.099Z,51376.66
2022-12-31T07:45:52.188Z,51358.75
2022-12-31T07:48:26.531Z,51350.81
2022-12-31T07:50:55.800Z,51364.72
2022-12-31T07:53:32.902Z,51404.50
2022-12-31T07:56:08.694Z,51374.66
2022-12-31T07:58:41.168Z,51378.66
2022-12-31T08:01:23.124Z,51382.63
2022-12-31T08:04:29.632Z,51374.66
2022-12-31T08:07:54.921Z,51400.50
2022-12-31T08:10:36.846Z,51388.59
2022-12-31T08:13:10.629Z,51406.47
2022-12-31T08:15:40.020Z,51372.69
2022-12-31T08:18:08.698Z,51420.41
2022-12-31T08:20:49.261Z,51382.63
2022-12-31T08:23:40.640Z,51400.50
2022-12-31T08:26:24.776Z,51388.59
2022-12-31T08:29:35.202Z,51412.44
2022-12-31T08:32:22.819Z,51392.56
2022-12-31T08:35:12.581Z,51386.59
2022-12-31T08:37:43.969Z,51392.56
2022-12-31T08:40:19.981Z,51394.53
2022-12-31T08:42:52.900Z,51396.53
2022-12-31T08:45:26.528Z,51392.56
2022-12-31T08:48:25.816Z,51384.59
2022-12-31T08:50:54.258Z,51376.66
2022-12-31T08:53:21.975Z,51384.59
2022-12-31T08:55:58.219Z,51382.63
2022-12-31T08:58:34.259Z,51392.56
2022-12-31T09:01:02.262Z,51396.53
2022-12-31T09:04:09.646Z,51380.63
2022-12-31T09:06:46.722Z,51400.50
2022-12-31T09:09:28.035Z,51378.66
2022-12-31T09:12:31.278Z,51390.56
2022-12-31T09:15:21.433Z,51396.53
2022-12-31T09:17:52.098Z,51398.53
2022-12-31T09:20:42.333Z,51416.41
2022-12-31T09:23:12.434Z,51402.50
2022-12-31T09:26:01.265Z,51394.53
2022-12-31T09:28:54.053Z,51384.59
2022-12-31T09:31:49.064Z,51402.50
2022-12-31T09:34:50.851Z,51412.44
2022-12-31T09:37:49.679Z,51400.50
2022-12-31T09:40:28.975Z,51426.34
2022-12-31T09:43:33.344Z,51404.50
2022-12-31T09:46:44.776Z,51416.41
2022-12-31T09:49:33.125Z,51408.47
2022-12-31T09:52:25.922Z,51408.47
2022-12-31T09:54:58.779Z,51422.38
2022-12-31T09:58:18.016Z,51388.59
2022-12-31T10:00:59.348Z,51404.50
2022-12-31T10:03:57.297Z,51396.53
2022-12-31T10:06:52.269Z,51430.34
2022-12-31T10:09:32.891Z,51404.50
2022-12-31T10:12:30.727Z,51410.44
2022-12-31T10:15:31.235Z,51404.50
2022-12-31T10:18:45.539Z,51428.34
2022-12-31T10:21:55.083Z,51412.44
2022-12-31T10:24:34.034Z,51416.41
2022-12-31T10:27:46.084Z,51390.56
2022-12-31T10:30:24.180Z,51408.47
2022-12-31T10:33:18.320Z,51434.31
2022-12-31T10:36:31.213Z,51424.38
2022-12-31T10:39:22.202Z,51390.56
2022-12-31T10:42:09.934Z,51430.34
2022-12-31T10:44:55.054Z,51418.41
2022-12-31T10:47:52.467Z,51418.41
2022-12-31T10:50:46.796Z,51398.53
2022-12-31T10:53:58.713Z,51412.44
2022-12-31T10:57:11.962Z,51408.47
2022-12-31T11:00:17.710Z,51440.28
2022-12-31T11:03:03.395Z,51418.41
2022-12-31T11:05:52.082Z,51426.34
2022-12-31T11:08:49.589Z,51406.47
2022-12-31T11:11:43.056Z,51410.44
2022-12-31T11:14:34.848Z,51418.41
2022-12-31T11:17:20.488Z,51432.31
2022-12-31T11:20:15.578Z,51426.34
2022-12-31T11:23:15.466Z,51412.44
2022-12-31T11:26:10.219Z,51398.53
2022-12-31T11:29:09.638Z,51432.31
2022-12-31T11:31:58.267Z,51428.34
2022-12-31T11:35:15.215Z,51434.31
2022-12-31T11:38:05.087Z,51414.44
2022-12-31T11:41:02.492Z,51416.41
2022-12-31T11:43:44.633Z,51426.34
2022-12-31T11:46:39.846Z,51412.44
2022-12-31T11:49:47.313Z,51452.19
2022-12-31T11:52:25.134Z,51450.22
2022-12-31T11:55:05.666Z,51450.22
2022-12-31T11:57:41.608Z,51474.06
2022-12-31T12:00:22.065Z,51462.16
2022-12-31T12:03:01.589Z,51452.19
2022-12-31T12:05:29.323Z,51446.25
2022-12-31T12:07:57.395Z,51466.13
2022-12-31T12:10:42.555Z,51452.19
2022-12-31T12:13:24.688Z,51486.00
2022-12-31T12:16:03.790Z,51458.16
2022-12-31T12:18:45.484Z,51478.03
2022-12-31T12:21:18.425Z,51480.03
2022-12-31T12:24:05.729Z,51511.84
2022-12-31T12:26:43.341Z,51478.03
2022-12-31T12:29:12.993Z,51486.00
2022-12-31T12:31:40.329Z,51489.97
2022-12-31T12:34:28.756Z,51480.03
2022-12-31T12:36:56.659Z,51482.03
2022-12-31T12:39:31.961Z,51486.00
2022-12-31T12:42:14.320Z,51470.09
2022-12-31T12:44:44.670Z,51444.25
2022-12-31T12:47:17.911Z,51462.16
2022-12-31T12:49:54.252Z,51416.41
2022-12-31T12:53:17.629Z,51444.25
2022-12-31T12:56:06.645Z,51430.34
2022-12-31T12:58:53.110Z,51424.38
2022-12-31T13:01:47.735Z,51424.38
2022-12-31T13:05:05.853Z,51470.09
2022-12-31T13:07:55.014Z,51458.16
2022-12-31T13:10:46.620Z,51436.28
2022-12-31T13:13:43.249Z,51442.25
2022-12-31T13:16:38.079Z,51448.22
2022-12-31T13:19:17.069Z,51430.34
2022-12-31T13:21:44.171Z,51412.44
2022-12-31T13:24:38.149Z,51436.28
2022-12-31T13:27:23.003Z,51442.25
2022-12-31T13:29:52.526Z,51436.28
2022-12-31T13:32:29.803Z,51454.19
2022-12-31T13:35:17.074Z,51452.19
2022-12-31T13:37:45.297Z,51444.25
2022-12-31T13:40:58.558Z,51412.44
2022-12-31T13:43:37.390Z,51428.34
2022-12-31T13:46:28.331Z,51398.53
2022-12-31T13:49:03.547Z,51444.25
2022-12-31T13:51:46.468Z,51436.28
2022-12-31T13:54:35.633Z,51430.34
2022-12-31T13:57:18.711Z,51446.25
2022-12-31T13:59:54.654Z,51444.25
2022-12-31T14:02:47.900Z,51436.28
2022-12-31T14:05:34.168Z,51432.31
2022-12-31T14:08:04.547Z,51432.31
2022-12-31T14:11:19.109Z,51428.34
2022-12-31T14:14:26.932Z,51426.34
2022-12-31T14:17:20.009Z,51442.25
2022-12-31T14:19:52.871Z,51436.28
2022-12-31T14:22:38.550Z,51434.31
2022-12-31T14:25:21.884Z,51414.44
2022-12-31T14:27:53.489Z,51434.31
2022-12-31T14:30:24.151Z,51452.19
2022-12-31T14:33:06.362Z,51424.38
2022-12-31T14:36:18.103Z,51412.44
2022-12-31T14:39:08.971Z,51410.44
2022-12-31T14:41:57.844Z,51396.53
2022-12-31T14:45:00.314Z,51418.41
2022-12-31T14:48:23.895Z,51412.44
2022-12-31T14:50:52.750Z,51424.38
2022-12-31T14:53:27.726Z,51420.41
2022-12-31T14:56:08.599Z,51414.44
2022-12-31T14:58:42.639Z,51420.41
2022-12-31T15:01:15.912Z,51432.31
2022-12-31T15:03:46.102Z,51424.38
2022-12-31T15:06:41.124Z,51446.25
2022-12-31T15:09:59.751Z,51420.41
2022-12-31T15:12:53.381Z,51410.44
2022-12-31T15:16:18.508Z,51412.44
2022-12-31T15:19:07.009Z,51406.47
2022-12-31T15:21:59.156Z,51410.44
2022-12-31T15:24:30.753Z,51410.44
2022-12-31T15:27:04.698Z,51406.47
2022-12-31T15:29:41.088Z,51412.44
2022-12-31T15:32:19.285Z,51430.34
2022-12-31T15:34:46.573Z,51448.22
2022-12-31T15:37:36.887Z,51440.28
2022-12-31T15:40:16.361Z,51424.38
2022-12-31T15:42:52.233Z,51412.44
2022-12-31T15:45:31.622Z,51432.31
2022-12-31T15:48:02.384Z,51420.41
2022-12-31T15:50:30.203Z,51416.41
2022-12-31T15:53:02.931Z,51422.38
2022-12-31T15:55:52.338Z,51432.31
2022-12-31T15:58:35.921Z,51432.31
2022-12-31T16:01:19.927Z,51428.34
2022-12-31T16:03:55.830Z,51430.34
2022-12-31T16:06:23.321Z,51448.22
2022-12-31T16:08:50.747Z,51442.25
2022-12-31T16:11:18.641Z,51430.34
2022-12-31T16:13:52.361Z,51434.31
2022-12-31T16:16:31.759Z,51436.28
2022-12-31T16:19:00.880Z,51432.31
2022-12-31T16:21:38.642Z,51420.41
2022-12-31T16:24:32.189Z,51422.38
2022-12-31T16:27:14.142Z,51426.34
2022-12-31T16:29:55.695Z,51426.34
2022-12-31T16:32:23.456Z,51414.44
2022-12-31T16:34:50.527Z,51426.34
2022-12-31T16:37:20.753Z,51430.34
2022-12-31T16:40:19.223Z,51418.41
2022-12-31T16:42:47.785Z,51412.44
2022-12-31T16:45:36.902Z,51410.44
2022-12-31T16:48:17.409Z,51388.59
2022-12-31T16:50:52.839Z,51424.38
2022-12-31T16:53:24.865Z,51408.47
2022-12-31T16:55:57.504Z,51414.44
2022-12-31T16:58:32.681Z,51430.34
2022-12-31T17:01:28.605Z,51404.50
2022-12-31T17:04:01.126Z,51422.38
2022-12-31T17:06:32.178Z,51394.53
2022-12-31T17:09:22.381Z,51394.53
2022-12-31T17:11:55.524Z,51402.50
2022-12-31T17:14:29.208Z,51410.44
2022-12-31T17:17:05.755Z,51406.47
2022-12-31T17:19:38.516Z,51400.50
2022-12-31T17:22:36.539Z,51428.34
2022-12-31T17:25:28.191Z,51420.41
2022-12-31T17:28:01.713Z,51420.41
2022-12-31T17:30:32.713Z,51404.50
2022-12-31T17:33:13.350Z,51416.41
2022-12-31T17:35:45.290Z,51424.38
2022-12-31T17:38:21.402Z,51424.38
2022-12-31T17:41:08.816Z,51402.50
2022-12-31T17:43:38.443Z,51416.41
2022-12-31T17:46:17.173Z,51420.41
2022-12-31T17:48:50.630Z,51400.50
2022-12-31T17:51:18.933Z,51432.31
2022-12-31T17:53:51.804Z,51418.41
2022-12-31T17:56:20.647Z,51434.31
2022-12-31T17:58:53.661Z,51402.50
2022-12-31T18:01:23.511Z,51428.34
2022-12-31T18:03:50.978Z,51406.47
2022-12-31T18:06:21.747Z,51382.63
2022-12-31T18:08:48.904Z,51404.50
2022-12-31T18:11:22.886Z,51414.44
2022-12-31T18:13:50.651Z,51408.47
2022-12-31T18:16:17.924Z,51410.44
2022-12-31T18:18:45.489Z,51390.56
2022-12-31T18:21:32.964Z,51396.53
2022-12-31T18:26:29.696Z,51402.50
2022-12-31T18:28:59.871Z,51406.47
2022-12-31T18:31:29.252Z,51392.56
2022-12-31T18:33:58.849Z,51418.41
2022-12-31T18:36:28.155Z,51408.47
2022-12-31T18:38:55.376Z,51406.47
2022-12-31T18:41:27.922Z,51406.47
2022-12-31T18:43:55.994Z,51404.50
2022-12-31T18:46:24.812Z,51392.56
2022-12-31T18:48:51.885Z,51412.44
2022-12-31T18:51:31.473Z,51364.72
2022-12-31T18:54:03.201Z,51402.50
2022-12-31T18:56:31.147Z,51398.53
2022-12-31T18:58:59.708Z,51400.50
2022-12-31T19:01:35.230Z,51422.38
2022-12-31T19:04:33.931Z,51386.59
2022-12-31T19:07:01.011Z,51360.75
2022-12-31T19:09:45.073Z,51402.50
2022-12-31T19:12:14.328Z,51366.72
2022-12-31T19:14:41.467Z,51402.50
2022-12-31T19:19:34.976Z,51392.56
2022-12-31T19:22:02.910Z,51410.44
2022-12-31T19:24:30.346Z,51410.44
2022-12-31T19:26:57.472Z,51398.53
2022-12-31T19:29:27.583Z,51418.41
2022-12-31T19:31:55.142Z,51412.44
2022-12-31T19:34:22.460Z,51426.34
2022-12-31T19:36:49.594Z,51420.41
2022-12-31T19:39:20.782Z,51420.41
2022-12-31T19:41:54.669Z,51406.47
2022-12-31T19:44:26.094Z,51394.53
2022-12-31T19:46:53.198Z,51416.41
2022-12-31T19:49:20.481Z,51406.47
2022-12-31T19:51:47.919Z,51434.31
2022-12-31T19:54:15.647Z,51444.25
2022-12-31T19:56:42.709Z,51416.41
2022-12-31T19:59:10.923Z,51404.50
2022-12-31T20:01:38.235Z,51408.47
2022-12-31T20:04:05.776Z,51448.22
2022-12-31T20:06:32.922Z,51406.47
2022-12-31T20:09:00.187Z,51388.59
2022-12-31T20:11:27.926Z,51416.41
2022-12-31T20:13:55.263Z,51398.53
2022-12-31T20:16:26.870Z,51402.50
2022-12-31T20:18:54.450Z,51406.47
2022-12-31T20:21:25.589Z,51404.50
2022-12-31T20:23:54.484Z,51402.50
2022-12-31T20:26:23.442Z,51412.44
2022-12-31T20:28:54.797Z,51412.44
2022-12-31T20:31:24.819Z,51428.34
2022-12-31T20:33:58.990Z,51404.50
2022-12-31T20:36:26.460Z,51418.41
2022-12-31T20:38:53.974Z,51414.44
2022-12-31T20:41:23.208Z,51420.41
2022-12-31T20:43:51.305Z,51418.41
2022-12-31T20:46:23.204Z,51408.47
2022-12-31T20:48:57.884Z,51424.38
2022-12-31T20:51:27.039Z,51410.44
2022-12-31T20:54:08.637Z,51386.59
2022-12-31T20:56:40.993Z,51392.56
2022-12-31T20:59:10.951Z,51440.28
2022-12-31T21:02:11.779Z,51412.44
2022-12-31T21:04:27.846Z,51412.44
2022-12-31T21:06:57.606Z,51406.47
2022-12-31T21:09:27.428Z,51440.28
2022-12-31T21:12:13.312Z,51422.38
2022-12-31T21:14:44.739Z,51416.41
2022-12-31T21:17:12.157Z,51402.50
2022-12-31T21:19:39.404Z,51424.38
2022-12-31T21:22:06.521Z,51428.34
2022-12-31T21:24:34.268Z,51430.34
2022-12-31T21:27:01.436Z,51408.47
2022-12-31T21:29:34.245Z,51420.41
2022-12-31T21:32:01.733Z,51404.50
2022-12-31T21:34:28.824Z,51406.47
2022-12-31T21:36:55.999Z,51404.50
2022-12-31T21:39:23.262Z,51398.53
2022-12-31T21:41:52.992Z,51410.44
2022-12-31T21:44:26.123Z,51424.38
2022-12-31T21:47:42.526Z,51410.44
2022-12-31T21:50:10.238Z,51428.34
2022-12-31T21:52:37.464Z,51412.44
2022-12-31T21:55:25.214Z,51426.34
2022-12-31T21:58:24.842Z,51406.47
2022-12-31T22:00:58.556Z,51424.38
2022-12-31T22:03:27.454Z,51422.38
2022-12-31T22:06:14.567Z,51422.38
2022-12-31T22:08:44.029Z,51414.44
2022-12-31T22:11:15.717Z,51408.47
2022-12-31T22:13:43.096Z,51408.47
2022-12-31T22:16:11.369Z,51420.41
2022-12-31T22:18:42.264Z,51420.41
2022-12-31T22:21:19.412Z,51408.47
2022-12-31T22:23:54.365Z,51428.34
2022-12-31T22:26:28.764Z,51414.44
2022-12-31T22:28:59.205Z,51408.47
2022-12-31T22:31:30.420Z,51424.38
2022-12-31T22:33:58.727Z,51408.47
2022-12-31T22:36:25.941Z,51448.22
2022-12-31T22:38:58.169Z,51448.22
2022-12-31T22:41:27.001Z,51402.50
2022-12-31T22:44:02.994Z,51428.34
2022-12-31T22:46:32.123Z,51426.34
2022-12-31T22:49:01.210Z,51464.13
2022-12-31T22:51:55.663Z,51420.41
2022-12-31T22:54:18.330Z,51418.41
2022-12-31T22:56:45.814Z,51428.34
2022-12-31T22:59:13.100Z,51388.59
2022-12-31T23:01:40.785Z,51414.44
2022-12-31T23:04:07.978Z,51430.34
2022-12-31T23:06:43.575Z,51404.50
2022-12-31T23:09:31.131Z,51412.44
2022-12-31T23:11:59.191Z,51428.34
2022-12-31T23:14:45.385Z,51388.59
2022-12-31T23:17:41.633Z,51410.44
2022-12-31T23:20:34.085Z,51420.41
2022-12-31T23:23:10.548Z,51404.50
2022-12-31T23:25:43.302Z,51406.47
2022-12-31T23:28:22.143Z,51416.41
2022-12-31T23:30:50.714Z,51452.19
2022-12-31T23:33:21.048Z,51440.28
2022-12-31T23:35:48.586Z,51418.41
2022-12-31T23:38:18.192Z,51400.50
2022-12-31T23:40:45.989Z,51386.59
2022-12-31T23:43:21.695Z,51412.44
2022-12-31T23:45:51.926Z,51406.47
2022-12-31T23:48:19.157Z,51436.28
2022-12-31T23:50:53.573Z,51398.53
2022-12-31T23:53:24.262Z,51424.38
2022-12-31T23:55:52.763Z,51418.41
2022-12-31T23:58:21.160Z,51384.59
